createdAt,value
2023-02-19T00:00:25.188Z,99669.19
2023-02-19T00:02:58.530Z,99665.78
2023-02-19T00:05:28.726Z,99666.88
2023-02-19T00:07:59.304Z,99669.25
2023-02-19T00:10:29.634Z,99667.56
2023-02-19T00:13:00.451Z,99667.44
2023-02-19T00:15:30.663Z,99668.84
2023-02-19T00:18:03.542Z,99677.50
2023-02-19T00:20:33.779Z,99679.28
2023-02-19T00:23:03.936Z,99675.66
2023-02-19T00:25:34.142Z,99673.81
2023-02-19T00:28:04.311Z,99686.06
2023-02-19T00:30:34.677Z,99681.34
2023-02-19T00:33:08.702Z,99676.75
2023-02-19T00:35:39.591Z,99675.50
2023-02-19T00:38:09.947Z,99678.22
2023-02-19T00:40:41.571Z,99684.78
2023-02-19T00:43:11.806Z,99692.31
2023-02-19T00:45:42.138Z,99686.06
2023-02-19T00:48:14.930Z,99690.47
2023-02-19T00:50:45.179Z,99693.34
2023-02-19T00:53:15.380Z,99703.25
2023-02-19T00:55:46.523Z,99701.44
2023-02-19T00:58:16.715Z,99699.81
2023-02-19T01:00:46.857Z,99695.97
2023-02-19T01:03:19.759Z,99697.06
2023-02-19T01:05:50.154Z,99711.59
2023-02-19T01:08:20.770Z,99710.00
2023-02-19T01:10:51.427Z,99716.50
2023-02-19T01:13:22.078Z,99714.56
2023-02-19T01:15:52.297Z,99723.19
2023-02-19T01:18:25.663Z,99723.50
2023-02-19T01:20:55.890Z,99727.88
2023-02-19T01:23:26.235Z,99726.13
2023-02-19T01:25:56.567Z,99726.41
2023-02-19T01:28:26.849Z,99724.63
2023-02-19T01:30:57.069Z,99722.94
2023-02-19T01:33:29.880Z,99725.50
2023-02-19T01:36:00.193Z,99722.53
2023-02-19T01:38:31.074Z,99726.00
2023-02-19T01:41:03.696Z,99727.50
2023-02-19T01:43:35.778Z,99726.97
2023-02-19T01:46:08.690Z,99722.75
2023-02-19T01:48:42.695Z,99730.03
2023-02-19T01:51:17.956Z,99717.25
2023-02-19T01:53:52.096Z,99717.72
2023-02-19T01:56:24.041Z,99718.75
2023-02-19T01:58:54.550Z,99720.75
2023-02-19T02:01:24.885Z,99715.03
2023-02-19T02:03:57.766Z,99717.44
2023-02-19T02:06:34.372Z,99703.78
2023-02-19T02:09:17.311Z,99705.88
2023-02-19T02:11:50.737Z,99707.22
2023-02-19T02:14:22.934Z,99711.31
2023-02-19T02:17:01.633Z,99717.81
2023-02-19T02:19:59.160Z,99707.41
2023-02-19T02:22:35.791Z,99701.56
2023-02-19T02:25:35.294Z,99706.56
2023-02-19T02:28:20.154Z,99718.94
2023-02-19T02:30:57.249Z,99721.91
2023-02-19T02:33:34.538Z,99739.59
2023-02-19T02:36:08.833Z,99741.06
2023-02-19T02:38:42.936Z,99744.09
2023-02-19T02:41:14.753Z,99741.59
2023-02-19T02:43:45.552Z,99755.72
2023-02-19T02:46:22.835Z,99759.56
2023-02-19T02:48:56.633Z,99749.81
2023-02-19T02:51:29.678Z,99763.50
2023-02-19T02:54:17.358Z,99768.88
2023-02-19T02:56:49.541Z,99773.69
2023-02-19T02:59:24.438Z,99779.44
2023-02-19T03:02:15.196Z,99771.13
2023-02-19T03:05:07.911Z,99767.84
2023-02-19T03:07:42.356Z,99767.66
2023-02-19T03:10:17.200Z,99770.72
2023-02-19T03:13:00.987Z,99764.81
2023-02-19T03:15:49.108Z,99752.91
2023-02-19T03:18:37.836Z,99758.53
2023-02-19T03:21:10.476Z,99738.53
2023-02-19T03:23:53.730Z,99736.34
2023-02-19T03:26:24.784Z,99730.03
2023-02-19T03:29:08.672Z,99726.72
2023-02-19T03:31:45.151Z,99744.16
2023-02-19T03:34:25.270Z,99736.13
2023-02-19T03:37:03.448Z,99743.50
2023-02-19T03:39:33.699Z,99738.50
2023-02-19T03:42:12.932Z,99734.19
2023-02-19T03:44:49.734Z,99732.38
2023-02-19T03:47:26.262Z,99740.44
2023-02-19T03:50:05.019Z,99737.09
2023-02-19T03:52:44.397Z,99727.78
2023-02-19T03:55:19.651Z,99743.72
2023-02-19T03:57:56.756Z,99735.34
2023-02-19T04:00:34.301Z,99739.41
2023-02-19T04:03:10.794Z,99745.84
2023-02-19T04:05:48.262Z,99750.28
2023-02-19T04:08:21.379Z,99758.47
2023-02-19T04:10:53.599Z,99764.31
2023-02-19T04:13:28.383Z,99771.34
2023-02-19T04:16:04.218Z,99766.44
2023-02-19T04:18:38.309Z,99758.41
2023-02-19T04:21:13.414Z,99741.16
2023-02-19T04:23:47.247Z,99755.88
2023-02-19T04:26:19.957Z,99756.72
2023-02-19T04:28:50.481Z,99778.06
2023-02-19T04:31:20.954Z,99775.69
2023-02-19T04:33:51.253Z,99776.00
2023-02-19T04:36:24.132Z,99773.00
2023-02-19T04:38:54.343Z,99760.19
2023-02-19T04:41:24.567Z,99758.88
2023-02-19T04:43:54.937Z,99758.31
2023-02-19T04:46:25.190Z,99762.09
2023-02-19T04:48:55.425Z,99758.50
2023-02-19T04:51:28.350Z,99764.34
2023-02-19T04:54:01.047Z,99763.00
2023-02-19T04:56:31.745Z,99756.06
2023-02-19T04:59:04.549Z,99757.16
2023-02-19T05:01:35.306Z,99752.19
2023-02-19T05:04:05.623Z,99728.44
2023-02-19T05:06:38.488Z,99715.19
2023-02-19T05:09:09.152Z,99714.41
2023-02-19T05:11:39.399Z,99723.41
2023-02-19T05:14:09.532Z,99736.47
2023-02-19T05:16:39.733Z,99739.63
2023-02-19T05:19:09.967Z,99737.00
2023-02-19T05:21:43.258Z,99749.22
2023-02-19T05:24:13.524Z,99754.13
2023-02-19T05:26:45.439Z,99748.41
2023-02-19T05:29:16.151Z,99752.00
2023-02-19T05:31:46.534Z,99759.22
2023-02-19T05:34:16.838Z,99761.00
2023-02-19T05:36:49.691Z,99752.72
2023-02-19T05:39:19.899Z,99743.63
2023-02-19T05:41:50.119Z,99744.34
2023-02-19T05:44:20.399Z,99742.38
2023-02-19T05:46:50.561Z,99740.56
2023-02-19T05:49:20.870Z,99738.94
2023-02-19T05:51:56.026Z,99747.81
2023-02-19T05:54:26.274Z,99750.53
2023-02-19T05:56:56.492Z,99755.22
2023-02-19T05:59:28.608Z,99750.88
2023-02-19T06:01:58.951Z,99749.56
2023-02-19T06:04:29.116Z,99752.22
2023-02-19T06:07:01.953Z,99744.38
2023-02-19T06:09:32.531Z,99732.28
2023-02-19T06:12:02.991Z,99736.16
2023-02-19T06:14:33.249Z,99734.28
2023-02-19T06:17:03.493Z,99721.28
2023-02-19T06:19:34.295Z,99737.25
2023-02-19T06:22:07.437Z,99727.97
2023-02-19T06:24:37.774Z,99727.56
2023-02-19T06:27:08.963Z,99725.22
2023-02-19T06:29:40.859Z,99731.50
2023-02-19T06:32:11.339Z,99731.25
2023-02-19T06:34:41.470Z,99727.25
2023-02-19T06:37:14.302Z,99731.97
2023-02-19T06:39:47.769Z,99733.69
2023-02-19T06:42:18.074Z,99726.97
2023-02-19T06:44:48.231Z,99730.59
2023-02-19T06:47:18.461Z,99723.25
2023-02-19T06:49:48.604Z,99727.66
2023-02-19T06:52:21.455Z,99722.25
2023-02-19T06:54:51.611Z,99720.16
2023-02-19T06:57:21.968Z,99719.84
2023-02-19T06:59:52.191Z,99707.03
2023-02-19T07:02:22.425Z,99706.63
2023-02-19T07:04:52.606Z,99710.50
2023-02-19T07:07:25.448Z,99712.16
2023-02-19T07:09:55.983Z,99707.16
2023-02-19T07:12:26.232Z,99704.50
2023-02-19T07:14:56.931Z,99707.44
2023-02-19T07:17:27.115Z,99709.53
2023-02-19T07:19:58.085Z,99693.00
2023-02-19T07:22:30.940Z,99713.84
2023-02-19T07:25:01.121Z,99699.09
2023-02-19T07:27:31.268Z,99700.00
2023-02-19T07:30:03.203Z,99691.63
2023-02-19T07:32:33.795Z,99689.31
2023-02-19T07:35:03.947Z,99695.72
2023-02-19T07:37:36.824Z,99691.91
2023-02-19T07:40:08.872Z,99698.50
2023-02-19T07:42:39.181Z,99702.81
2023-02-19T07:45:10.253Z,99689.59
2023-02-19T07:47:40.502Z,99689.59
2023-02-19T07:50:13.888Z,99696.28
2023-02-19T07:52:46.857Z,99680.50
2023-02-19T07:55:17.183Z,99680.22
2023-02-19T07:57:47.426Z,99688.06
2023-02-19T08:00:19.258Z,99683.09
2023-02-19T08:03:04.655Z,99693.72
2023-02-19T08:05:37.299Z,99689.75
2023-02-19T08:08:13.094Z,99691.91
2023-02-19T08:10:56.118Z,99712.69
2023-02-19T08:13:27.873Z,99707.94
2023-02-19T08:16:16.076Z,99712.41
2023-02-19T08:18:50.051Z,99728.00
2023-02-19T08:21:21.212Z,99727.16
2023-02-19T08:23:54.025Z,99730.78
2023-02-19T08:26:24.316Z,99725.34
2023-02-19T08:28:54.801Z,99722.97
2023-02-19T08:31:25.162Z,99726.75
2023-02-19T08:33:55.604Z,99735.53
2023-02-19T08:36:25.900Z,99732.78
2023-02-19T08:38:58.726Z,99725.66
2023-02-19T08:41:31.741Z,99727.50
2023-02-19T08:44:02.032Z,99728.28
2023-02-19T08:46:34.313Z,99726.09
2023-02-19T08:49:04.973Z,99721.09
2023-02-19T08:51:35.628Z,99730.50
2023-02-19T08:54:08.778Z,99715.72
2023-02-19T08:56:39.085Z,99720.91
2023-02-19T08:59:12.463Z,99715.69
2023-02-19T09:01:42.817Z,99726.97
2023-02-19T09:04:15.355Z,99723.75
2023-02-19T09:06:45.650Z,99732.94
2023-02-19T09:09:18.511Z,99717.28
2023-02-19T09:11:49.800Z,99724.16
2023-02-19T09:14:20.017Z,99710.69
2023-02-19T09:16:50.468Z,99706.63
2023-02-19T09:19:20.720Z,99698.97
2023-02-19T09:21:50.899Z,99699.50
2023-02-19T09:24:24.143Z,99691.88
2023-02-19T09:26:55.609Z,99692.63
2023-02-19T09:29:28.495Z,99689.63
2023-02-19T09:32:02.699Z,99676.25
2023-02-19T09:34:33.112Z,99675.00
2023-02-19T09:37:03.400Z,99681.34
2023-02-19T09:39:36.618Z,99656.84
2023-02-19T09:42:15.572Z,99671.84
2023-02-19T09:44:48.514Z,99669.25
2023-02-19T09:47:22.390Z,99683.56
2023-02-19T09:49:55.956Z,99679.66
2023-02-19T09:52:32.018Z,99670.13
2023-02-19T09:55:07.643Z,99664.53
2023-02-19T09:57:39.291Z,99657.31
2023-02-19T10:00:23.363Z,99659.84
2023-02-19T10:03:07.678Z,99656.22
2023-02-19T10:05:38.485Z,99661.88
2023-02-19T10:08:13.110Z,99649.00
2023-02-19T10:10:47.366Z,99651.09
2023-02-19T10:13:22.664Z,99632.94
2023-02-19T10:15:55.561Z,99642.22
2023-02-19T10:18:28.536Z,99627.91
2023-02-19T10:21:00.184Z,99634.63
2023-02-19T10:23:30.895Z,99632.84
2023-02-19T10:26:04.031Z,99617.00
2023-02-19T10:28:37.636Z,99622.56
2023-02-19T10:31:20.899Z,99613.06
2023-02-19T10:33:56.778Z,99620.63
2023-02-19T10:36:32.625Z,99596.97
2023-02-19T10:39:04.727Z,99589.47
2023-02-19T10:41:44.423Z,99604.56
2023-02-19T10:44:21.018Z,99592.13
2023-02-19T10:46:55.424Z,99617.69
2023-02-19T10:49:30.780Z,99605.91
2023-02-19T10:52:05.715Z,99598.19
2023-02-19T10:54:36.672Z,99602.31
2023-02-19T10:57:31.365Z,99597.97
2023-02-19T11:00:02.383Z,99598.63
2023-02-19T11:02:34.626Z,99598.38
2023-02-19T11:05:21.006Z,99616.78
2023-02-19T11:07:56.408Z,99623.63
2023-02-19T11:10:31.026Z,99624.72
2023-02-19T11:13:08.629Z,99621.09
2023-02-19T11:15:40.247Z,99633.19
2023-02-19T11:18:24.170Z,99625.88
2023-02-19T11:20:57.813Z,99623.09
2023-02-19T11:23:32.430Z,99615.75
2023-02-19T11:26:08.121Z,99605.75
2023-02-19T11:28:43.174Z,99596.41
2023-02-19T11:31:24.712Z,99595.53
2023-02-19T11:33:59.566Z,99606.13
2023-02-19T11:36:36.395Z,99605.41
2023-02-19T11:39:25.594Z,99607.56
2023-02-19T11:42:15.326Z,99588.63
2023-02-19T11:45:02.665Z,99593.97
2023-02-19T11:47:51.310Z,99562.75
2023-02-19T11:50:30.055Z,99557.81
2023-02-19T11:53:17.298Z,99580.47
2023-02-19T11:56:03.903Z,99564.84
2023-02-19T11:59:02.659Z,99573.31
2023-02-19T12:01:58.722Z,99556.38
2023-02-19T12:04:58.726Z,99540.00
2023-02-19T12:07:50.183Z,99540.66
2023-02-19T12:10:26.361Z,99534.78
2023-02-19T12:13:09.698Z,99532.78
2023-02-19T12:16:03.846Z,99522.66
2023-02-19T12:19:05.227Z,99521.78
2023-02-19T12:21:58.743Z,99523.91
2023-02-19T12:24:56.444Z,99521.66
2023-02-19T12:27:41.855Z,99509.41
2023-02-19T12:30:34.712Z,99523.13
2023-02-19T12:33:25.199Z,99520.16
2023-02-19T12:36:12.485Z,99521.00
2023-02-19T12:38:47.837Z,99518.78
2023-02-19T12:41:29.744Z,99511.66
2023-02-19T12:44:04.711Z,99507.59
2023-02-19T12:46:39.493Z,99494.69
2023-02-19T12:49:15.558Z,99477.75
2023-02-19T12:51:55.329Z,99485.81
2023-02-19T12:54:29.958Z,99483.00
2023-02-19T12:57:05.193Z,99483.28
2023-02-19T12:59:43.344Z,99472.13
2023-02-19T13:02:20.790Z,99477.13
2023-02-19T13:04:57.749Z,99476.94
2023-02-19T13:07:35.790Z,99454.78
2023-02-19T13:10:20.663Z,99458.69
2023-02-19T13:12:52.797Z,99458.34
2023-02-19T13:15:28.588Z,99454.66
2023-02-19T13:18:01.746Z,99457.88
2023-02-19T13:20:35.556Z,99465.16
2023-02-19T13:23:26.787Z,99454.06
2023-02-19T13:26:22.559Z,99453.69
2023-02-19T13:29:04.851Z,99462.00
2023-02-19T13:31:55.409Z,99441.22
2023-02-19T13:34:42.552Z,99455.53
2023-02-19T13:37:14.035Z,99458.53
2023-02-19T13:39:53.310Z,99464.81
2023-02-19T13:42:29.362Z,99464.81
2023-02-19T13:45:02.027Z,99472.13
2023-02-19T13:47:50.989Z,99463.19
2023-02-19T13:50:25.475Z,99468.09
2023-02-19T13:53:04.436Z,99471.97
2023-02-19T13:55:54.824Z,99469.78
2023-02-19T13:58:56.694Z,99470.47
2023-02-19T14:02:17.878Z,99476.78
2023-02-19T14:04:54.383Z,99465.31
2023-02-19T14:07:53.317Z,99455.03
2023-02-19T14:11:02.707Z,99450.38
2023-02-19T14:14:06.862Z,99450.88
2023-02-19T14:16:57.831Z,99449.00
2023-02-19T14:20:00.498Z,99444.16
2023-02-19T14:23:12.589Z,99443.72
2023-02-19T14:25:53.439Z,99446.22
2023-02-19T14:28:36.416Z,99424.13
2023-02-19T14:31:22.977Z,99442.06
2023-02-19T14:33:55.611Z,99438.25
2023-02-19T14:36:44.290Z,99438.41
2023-02-19T14:39:19.961Z,99442.91
2023-02-19T14:41:53.907Z,99456.03
2023-02-19T14:44:37.768Z,99452.38
2023-02-19T14:47:16.499Z,99454.53
2023-02-19T14:49:51.002Z,99472.63
2023-02-19T14:52:28.497Z,99483.34
2023-02-19T14:55:04.184Z,99487.75
2023-02-19T14:57:38.963Z,99463.41
2023-02-19T15:00:27.088Z,99458.63
2023-02-19T15:03:02.742Z,99455.66
2023-02-19T15:05:36.792Z,99463.44
2023-02-19T15:08:12.992Z,99484.41
2023-02-19T15:10:46.378Z,99500.72
2023-02-19T15:13:27.951Z,99501.50
2023-02-19T15:15:58.814Z,99514.94
2023-02-19T15:18:36.394Z,99519.25
2023-02-19T15:21:10.138Z,99526.66
2023-02-19T15:23:41.986Z,99527.34
2023-02-19T15:26:24.096Z,99536.13
2023-02-19T15:29:02.145Z,99545.28
2023-02-19T15:31:32.689Z,99541.94
2023-02-19T15:34:06.252Z,99535.66
2023-02-19T15:36:38.025Z,99537.19
2023-02-19T15:39:08.682Z,99541.44
2023-02-19T15:41:39.225Z,99553.41
2023-02-19T15:44:29.947Z,99568.44
2023-02-19T15:47:03.821Z,99567.03
2023-02-19T15:49:41.654Z,99573.03
2023-02-19T15:52:15.117Z,99578.47
2023-02-19T15:54:52.323Z,99596.88
2023-02-19T15:57:27.877Z,99599.78
2023-02-19T16:00:05.703Z,99609.81
2023-02-19T16:02:37.280Z,99617.03
2023-02-19T16:05:19.078Z,99616.50
2023-02-19T16:07:52.536Z,99616.91
2023-02-19T16:10:26.420Z,99623.56
2023-02-19T16:13:05.093Z,99632.66
2023-02-19T16:15:36.915Z,99634.44
2023-02-19T16:18:08.014Z,99628.84
2023-02-19T16:20:41.241Z,99645.94
2023-02-19T16:23:17.558Z,99644.56
2023-02-19T16:25:49.728Z,99662.63
2023-02-19T16:28:25.268Z,99677.38
2023-02-19T16:31:00.172Z,99670.41
2023-02-19T16:33:48.509Z,99680.38
2023-02-19T16:36:29.452Z,99670.91
2023-02-19T16:39:07.276Z,99677.78
2023-02-19T16:41:49.571Z,99680.00
2023-02-19T16:44:35.923Z,99677.56
2023-02-19T16:47:09.740Z,99675.88
2023-02-19T16:49:42.641Z,99676.84
2023-02-19T16:52:18.319Z,99677.69
2023-02-19T16:54:50.525Z,99679.50
2023-02-19T16:57:23.913Z,99683.81
2023-02-19T16:59:56.402Z,99680.34
2023-02-19T17:02:34.029Z,99675.00
2023-02-19T17:05:07.044Z,99683.63
2023-02-19T17:07:40.082Z,99689.88
2023-02-19T17:10:14.123Z,99689.47
2023-02-19T17:12:54.102Z,99691.94
2023-02-19T17:15:26.058Z,99697.47
2023-02-19T17:17:56.681Z,99698.00
2023-02-19T17:20:32.048Z,99707.31
2023-02-19T17:23:07.796Z,99704.94
2023-02-19T17:25:38.104Z,99718.97
2023-02-19T17:28:12.902Z,99724.38
2023-02-19T17:30:43.545Z,99714.44
2023-02-19T17:33:14.076Z,99735.28
2023-02-19T17:35:45.644Z,99733.22
2023-02-19T17:38:18.806Z,99736.13
2023-02-19T17:40:51.664Z,99736.56
2023-02-19T17:43:22.242Z,99731.81
2023-02-19T17:45:56.396Z,99732.69
2023-02-19T17:48:27.236Z,99731.44
2023-02-19T17:50:57.983Z,99728.94
2023-02-19T17:53:31.409Z,99723.25
2023-02-19T17:56:01.609Z,99730.03
2023-02-19T17:58:32.071Z,99733.81
2023-02-19T18:01:03.036Z,99737.97
2023-02-19T18:03:33.651Z,99738.25
2023-02-19T18:06:04.113Z,99741.84
2023-02-19T18:08:37.992Z,99742.09
2023-02-19T18:11:10.574Z,99733.63
2023-02-19T18:13:42.003Z,99742.25
2023-02-19T18:16:15.771Z,99744.22
2023-02-19T18:18:46.628Z,99745.72
2023-02-19T18:21:22.053Z,99761.81
2023-02-19T18:23:56.212Z,99754.00
2023-02-19T18:26:26.890Z,99763.41
2023-02-19T18:28:57.461Z,99763.53
2023-02-19T18:31:27.820Z,99764.38
2023-02-19T18:33:58.688Z,99768.56
2023-02-19T18:36:30.529Z,99772.03
2023-02-19T18:39:04.075Z,99779.31
2023-02-19T18:41:37.104Z,99778.84
2023-02-19T18:44:07.970Z,99795.13
2023-02-19T18:46:38.364Z,99802.72
2023-02-19T18:49:10.007Z,99825.00
2023-02-19T18:51:40.339Z,99817.59
2023-02-19T18:54:13.672Z,99830.41
2023-02-19T18:56:45.970Z,99839.75
2023-02-19T18:59:18.888Z,99844.81
2023-02-19T19:01:49.422Z,99845.06
2023-02-19T19:04:20.123Z,99829.72
2023-02-19T19:06:51.006Z,99837.59
2023-02-19T19:09:24.367Z,99847.06
2023-02-19T19:11:54.864Z,99855.69
2023-02-19T19:14:25.440Z,99856.53
2023-02-19T19:16:56.498Z,99856.44
2023-02-19T19:19:29.752Z,99858.13
2023-02-19T19:22:00.673Z,99855.47
2023-02-19T19:24:37.265Z,99859.13
2023-02-19T19:27:07.847Z,99860.09
2023-02-19T19:29:39.136Z,99869.91
2023-02-19T19:32:10.835Z,99875.66
2023-02-19T19:34:42.888Z,99893.28
2023-02-19T19:37:13.791Z,99883.47
2023-02-19T19:39:48.258Z,99895.56
2023-02-19T19:42:18.622Z,99916.28
2023-02-19T19:44:49.312Z,99907.53
2023-02-19T19:47:19.863Z,99920.81
2023-02-19T19:49:54.350Z,99927.16
2023-02-19T19:52:28.228Z,99933.28
2023-02-19T19:55:04.344Z,99928.38
2023-02-19T19:57:34.636Z,99933.41
2023-02-19T20:00:06.189Z,99934.34
2023-02-19T20:02:36.665Z,99939.75
2023-02-19T20:05:08.168Z,99954.00
2023-02-19T20:07:38.802Z,99982.84
2023-02-19T20:10:14.019Z,99983.75
2023-02-19T20:12:44.598Z,100003.31
2023-02-19T20:15:18.911Z,100012.66
2023-02-19T20:17:50.560Z,100017.94
2023-02-19T20:20:24.379Z,100005.56
2023-02-19T20:23:00.102Z,100023.38
2023-02-19T20:25:37.205Z,100036.53
2023-02-19T20:28:07.922Z,100044.31
2023-02-19T20:30:41.147Z,100057.50
2023-02-19T20:33:11.629Z,100065.69
2023-02-19T20:35:41.854Z,100060.88
2023-02-19T20:38:12.028Z,100055.94
2023-02-19T20:40:45.303Z,100067.59
2023-02-19T20:43:15.897Z,100056.78
2023-02-19T20:45:47.929Z,100064.63
2023-02-19T20:48:24.814Z,100067.97
2023-02-19T20:50:59.320Z,100068.88
2023-02-19T20:53:33.108Z,100078.66
2023-02-19T20:56:11.524Z,100090.53
2023-02-19T20:58:45.266Z,100101.31
2023-02-19T21:01:16.249Z,100106.97
2023-02-19T21:03:46.784Z,100110.47
2023-02-19T21:06:18.140Z,100113.41
2023-02-19T21:08:51.441Z,100125.34
2023-02-19T21:11:24.644Z,100137.75
2023-02-19T21:13:56.778Z,100145.97
2023-02-19T21:16:27.304Z,100154.16
2023-02-19T21:18:57.863Z,100157.31
2023-02-19T21:21:30.442Z,100168.19
2023-02-19T21:24:02.520Z,100182.38
2023-02-19T21:26:43.128Z,100190.28
2023-02-19T21:29:19.079Z,100200.91
2023-02-19T21:31:51.022Z,100192.66
2023-02-19T21:34:23.417Z,100206.66
2023-02-19T21:36:53.796Z,100165.69
2023-02-19T21:39:31.374Z,100204.06
2023-02-19T21:42:04.516Z,100218.44
2023-02-19T21:44:34.710Z,100211.00
2023-02-19T21:47:04.992Z,100222.66
2023-02-19T21:49:35.178Z,100228.94
2023-02-19T21:52:05.437Z,100229.22
2023-02-19T21:54:38.330Z,100240.44
2023-02-19T21:57:12.257Z,100241.31
2023-02-19T21:59:42.578Z,100270.59
2023-02-19T22:02:13.677Z,100269.03
2023-02-19T22:04:44.168Z,100269.59
2023-02-19T22:07:14.515Z,100281.06
2023-02-19T22:09:46.403Z,100271.09
2023-02-19T22:12:19.690Z,100289.06
2023-02-19T22:14:49.849Z,100273.91
2023-02-19T22:17:19.973Z,100287.09
2023-02-19T22:19:50.219Z,100293.72
2023-02-19T22:22:20.522Z,100295.72
2023-02-19T22:24:50.708Z,100300.03
2023-02-19T22:27:24.722Z,100299.81
2023-02-19T22:29:56.367Z,100295.16
2023-02-19T22:32:26.721Z,100303.78
2023-02-19T22:34:57.115Z,100313.09
2023-02-19T22:37:27.323Z,100307.03
2023-02-19T22:39:57.623Z,100315.84
2023-02-19T22:42:30.462Z,100319.13
2023-02-19T22:45:00.685Z,100333.47
2023-02-19T22:47:30.900Z,100335.97
2023-02-19T22:50:01.587Z,100342.56
2023-02-19T22:52:31.931Z,100346.38
2023-02-19T22:55:02.680Z,100351.72
2023-02-19T22:57:37.812Z,100365.19
2023-02-19T23:00:12.184Z,100361.88
2023-02-19T23:02:48.330Z,100365.06
2023-02-19T23:05:20.009Z,100376.31
2023-02-19T23:07:50.373Z,100373.88
2023-02-19T23:10:21.002Z,100378.19
2023-02-19T23:12:53.835Z,100381.31
2023-02-19T23:15:24.418Z,100384.94
2023-02-19T23:17:54.596Z,100379.00
2023-02-19T23:20:24.983Z,100390.44
2023-02-19T23:22:56.746Z,100394.75
2023-02-19T23:25:26.933Z,100410.13
2023-02-19T23:28:02.793Z,100404.81
2023-02-19T23:30:33.221Z,100406.06
2023-02-19T23:33:03.519Z,100411.06
2023-02-19T23:35:33.726Z,100413.00
2023-02-19T23:38:04.062Z,100420.69
2023-02-19T23:40:34.215Z,100426.94
2023-02-19T23:43:07.249Z,100435.34
2023-02-19T23:45:37.490Z,100443.69
2023-02-19T23:48:07.847Z,100450.38
2023-02-19T23:50:38.153Z,100457.72
2023-02-19T23:53:08.827Z,100453.41
2023-02-19T23:55:38.986Z,100461.50
2023-02-19T23:58:11.799Z,100459.13
